Time;durP1;ratioP1;P1;durP2;ratioP2;P2;SDS_P1;SDS_P2;PMS_P1;PMS_P2;Temp;Humidity;BMP_temperature;BMP_pressure;BME280_temperature;BME280_humidity;BME280_pressure;Samples;Min_cycle;Max_cycle;Signal;HPM_P1;HPM_P2
2021/09/12 00:02:04;;;;;;;10.57;4.15;;;;;;;16.17;89.58;101833.84;5035407;28;20727;-66
2021/09/12 00:04:32;;;;;;;10.93;4.30;;;;;;;16.16;89.58;101837.50;5038451;28;20452;-65
2021/09/12 00:07:00;;;;;;;18.10;4.43;;;;;;;16.09;89.42;101838.69;5035031;28;20681;-69
2021/09/12 00:09:28;;;;;;;10.27;3.83;;;;;;;16.05;90.03;101839.72;5036459;28;20115;-70
2021/09/12 00:11:55;;;;;;;12.18;4.15;;;;;;;16.00;90.17;101834.50;5036084;28;20172;-69
2021/09/12 00:14:25;;;;;;;14.65;4.28;;;;;;;16.03;90.04;101839.78;5035127;28;20135;-70
2021/09/12 00:16:53;;;;;;;12.27;4.15;;;;;;;15.94;90.41;101834.78;5036779;28;20106;-66
2021/09/12 00:19:21;;;;;;;11.52;4.55;;;;;;;15.86;90.66;101828.81;5035694;28;20080;-66
2021/09/12 00:21:49;;;;;;;13.10;4.15;;;;;;;15.82;90.76;101825.34;5032806;28;20064;-67
2021/09/12 00:24:16;;;;;;;16.85;5.00;;;;;;;15.78;91.11;101822.84;5032501;28;20551;-65
2021/09/12 00:26:44;;;;;;;13.55;4.28;;;;;;;15.69;91.62;101814.13;5033863;28;20115;-67
2021/09/12 00:29:12;;;;;;;11.13;4.55;;;;;;;15.63;92.26;101819.78;5034572;28;20384;-66
2021/09/12 00:31:41;;;;;;;14.07;5.13;;;;;;;15.61;92.20;101818.97;5039742;28;20348;-65
2021/09/12 00:34:09;;;;;;;12.07;4.70;;;;;;;15.56;92.25;101818.25;5040267;28;20149;-69
2021/09/12 00:36:37;;;;;;;15.27;4.65;;;;;;;15.52;92.70;101811.22;5039412;28;20053;-70
2021/09/12 00:39:05;;;;;;;13.00;4.30;;;;;;;15.47;92.77;101811.38;5039531;28;20075;-69
2021/09/12 00:41:35;;;;;;;12.38;4.60;;;;;;;15.43;92.79;101807.06;5038637;28;20044;-70
2021/09/12 00:44:03;;;;;;;14.55;5.13;;;;;;;15.40;93.81;101801.78;5038967;28;20081;-69
2021/09/12 00:46:31;;;;;;;10.40;4.10;;;;;;;15.37;93.24;101801.91;5041054;28;20131;-70
2021/09/12 00:49:01;;;;;;;10.65;4.70;;;;;;;15.38;93.16;101805.47;5038089;28;20106;-65
2021/09/12 00:51:28;;;;;;;16.60;4.90;;;;;;;15.31;93.12;101811.06;5036651;28;20056;-67
2021/09/12 00:53:58;;;;;;;13.25;4.93;;;;;;;15.27;93.19;101808.53;5037549;28;20398;-66
2021/09/12 00:56:27;;;;;;;10.65;4.25;;;;;;;15.23;93.63;101806.91;5036253;28;20049;-66
2021/09/12 00:58:57;;;;;;;15.35;5.25;;;;;;;15.21;93.65;101811.47;5040350;28;20053;-67
2021/09/12 01:01:25;;;;;;;13.20;5.00;;;;;;;15.20;93.51;101817.78;5039103;28;20678;-66
2021/09/12 01:03:54;;;;;;;14.30;5.00;;;;;;;15.19;93.66;101810.63;5036796;28;20052;-66
2021/09/12 01:06:23;;;;;;;13.57;7.43;;;;;;;15.13;93.74;101814.41;5034626;28;20071;-69
2021/09/12 01:08:51;;;;;;;16.38;5.35;;;;;;;15.08;93.94;101819.09;5037736;28;20433;-69
2021/09/12 01:11:19;;;;;;;8.57;4.75;;;;;;;15.05;93.88;101809.34;5038940;28;20496;-70
2021/09/12 01:13:46;;;;;;;18.42;5.55;;;;;;;15.02;94.00;101813.94;5037605;28;20545;-66
2021/09/12 01:16:17;;;;;;;14.63;5.88;;;;;;;15.01;94.22;101804.13;5037261;28;20050;-66
2021/09/12 01:18:46;;;;;;;13.75;5.45;;;;;;;14.99;94.42;101811.38;5032759;28;20049;-66
2021/09/12 01:21:16;;;;;;;11.75;5.38;;;;;;;14.99;94.38;101806.84;5035332;28;20573;-66
2021/09/12 01:23:46;;;;;;;16.35;5.57;;;;;;;14.94;94.61;101807.00;5037517;28;20460;-66
2021/09/12 01:26:20;;;;;;;13.30;5.85;;;;;;;14.91;94.47;101811.63;5037826;28;20515;-68
2021/09/12 01:28:48;;;;;;;;;;;;;;;14.86;94.60;101802.84;5040140;28;20081;-66
2021/09/12 01:31:22;;;;;;;14.70;5.82;;;;;;;14.82;95.09;101806.56;5036190;28;20007;-66
2021/09/12 01:33:55;;;;;;;14.85;5.88;;;;;;;14.82;95.15;101807.44;5037917;28;20053;-66
2021/09/12 01:36:23;;;;;;;12.80;5.80;;;;;;;14.77;95.80;101806.72;5038787;28;20049;-66
2021/09/12 01:38:51;;;;;;;15.70;5.93;;;;;;;14.74;95.23;101805.03;5033986;28;20401;-65
2021/09/12 01:41:20;;;;;;;12.85;5.55;;;;;;;14.71;96.26;101805.13;5037749;28;20441;-65
2021/09/12 01:43:49;;;;;;;20.20;6.20;;;;;;;14.67;95.97;101808.84;5037202;28;20132;-65
2021/09/12 01:46:17;;;;;;;11.57;5.55;;;;;;;14.70;95.82;101802.50;5040572;28;20069;-65
2021/09/12 01:48:45;;;;;;;16.58;5.93;;;;;;;14.67;96.22;101810.66;5036271;28;20092;-69
2021/09/12 01:51:14;;;;;;;14.85;6.28;;;;;;;14.64;96.12;101800.00;5034988;28;20049;-69
2021/09/12 01:53:42;;;;;;;14.23;6.55;;;;;;;14.62;96.05;101810.81;5038632;28;20056;-68
2021/09/12 01:56:10;;;;;;;13.98;6.22;;;;;;;14.59;96.58;101800.16;5039575;28;20136;-69
2021/09/12 01:58:40;;;;;;;13.38;6.35;;;;;;;14.61;96.17;101805.47;5036047;28;20053;-69
2021/09/12 02:01:07;;;;;;;13.32;6.05;;;;;;;14.54;96.81;101802.97;5036389;28;20591;-69
2021/09/12 02:03:36;;;;;;;13.85;5.70;;;;;;;14.56;96.84;101797.56;5038834;28;20044;-68
2021/09/12 02:06:03;;;;;;;12.77;6.13;;;;;;;14.50;97.30;101804.00;5036600;28;20049;-68
2021/09/12 02:08:31;;;;;;;14.63;6.97;;;;;;;14.50;97.38;101800.44;5037443;28;20134;-69
2021/09/12 02:10:59;;;;;;;13.70;6.53;;;;;;;14.49;97.49;101802.25;5039258;28;20048;-69
2021/09/12 02:13:27;;;;;;;15.60;6.65;;;;;;;14.45;97.61;101805.09;5034488;28;20331;-68
2021/09/12 02:15:56;;;;;;;16.27;6.50;;;;;;;14.43;97.73;101798.91;5037964;28;20148;-69
2021/09/12 02:18:24;;;;;;;14.77;6.50;;;;;;;14.39;97.76;101804.34;5037948;28;20049;-69
2021/09/12 02:20:52;;;;;;;17.10;6.38;;;;;;;14.41;98.00;101803.44;5036373;28;20428;-69
2021/09/12 02:23:20;;;;;;;18.92;6.88;;;;;;;14.41;98.11;101801.63;5037560;28;20056;-67
2021/09/12 02:25:48;;;;;;;15.20;6.30;;;;;;;14.39;98.33;101804.34;5033629;28;20145;-65
2021/09/12 02:28:16;;;;;;;16.63;6.90;;;;;;;14.40;98.08;101802.53;5038251;28;20100;-66
2021/09/12 02:30:44;;;;;;;15.48;6.70;;;;;;;14.41;98.05;101804.31;5035211;28;20052;-65
2021/09/12 02:33:14;;;;;;;17.52;7.15;;;;;;;14.42;98.46;101800.72;5039922;28;20056;-67
2021/09/12 02:35:42;;;;;;;18.30;7.20;;;;;;;14.43;97.91;101799.75;5036240;28;20159;-66
2021/09/12 02:38:12;;;;;;;20.25;7.20;;;;;;;14.43;98.43;101798.91;5036789;28;20394;-68
2021/09/12 02:40:40;;;;;;;18.35;6.93;;;;;;;14.42;98.31;101800.72;5037946;28;20052;-65
2021/09/12 02:43:08;;;;;;;14.18;5.93;;;;;;;14.39;98.33;101812.41;5034672;28;20076;-65
2021/09/12 02:45:37;;;;;;;15.23;7.45;;;;;;;14.43;98.26;101807.81;5037344;28;20076;-65
2021/09/12 02:48:05;;;;;;;12.18;5.53;;;;;;;14.45;98.17;101802.41;5034567;28;20045;-65
2021/09/12 02:50:34;;;;;;;17.60;6.68;;;;;;;14.42;98.48;101806.09;5034281;28;20106;-67
2021/09/12 02:53:02;;;;;;;16.88;7.18;;;;;;;14.42;98.63;101800.72;5038491;28;20052;-66
2021/09/12 02:55:29;;;;;;;17.48;7.20;;;;;;;14.42;98.58;101805.19;5032676;28;20098;-66
2021/09/12 02:57:57;;;;;;;19.73;7.25;;;;;;;14.43;98.26;101797.06;5037260;28;20136;-66
2021/09/12 03:00:25;;;;;;;20.02;7.78;;;;;;;14.43;98.52;101794.38;5034748;28;20099;-65
2021/09/12 03:02:56;;;;;;;16.50;7.10;;;;;;;14.45;98.58;101797.91;5034015;28;20123;-66
2021/09/12 03:05:26;;;;;;;18.58;7.35;;;;;;;14.47;98.10;101800.53;5035830;28;20072;-67
2021/09/12 03:07:55;;;;;;;18.20;7.43;;;;;;;14.51;98.43;101794.16;5033090;28;20151;-67
2021/09/12 03:10:23;;;;;;;17.25;7.85;;;;;;;14.52;98.46;101799.47;5038949;28;20044;-66
2021/09/12 03:12:51;;;;;;;18.02;6.95;;;;;;;14.53;98.26;101801.22;5036636;28;20057;-68
2021/09/12 03:15:19;;;;;;;16.05;7.45;;;;;;;14.54;98.45;101796.72;5034218;28;21057;-66
2021/09/12 03:17:47;;;;;;;23.90;8.40;;;;;;;14.56;98.25;101801.13;5036299;28;20090;-66
2021/09/12 03:20:15;;;;;;;18.65;8.15;;;;;;;14.60;98.45;101796.56;5037486;28;20182;-66
2021/09/12 03:22:43;;;;;;;21.90;10.02;;;;;;;14.57;98.55;101799.28;5036381;28;20049;-66
2021/09/12 03:25:12;;;;;;;23.08;9.40;;;;;;;14.60;98.62;101795.69;5036126;28;20512;-66
2021/09/12 03:27:40;;;;;;;27.25;9.40;;;;;;;14.63;98.25;101803.66;5034417;28;20088;-66
2021/09/12 03:30:09;;;;;;;20.65;8.73;;;;;;;14.62;98.28;101793.81;5034958;28;20633;-69
2021/09/12 03:32:37;;;;;;;23.83;9.82;;;;;;;14.61;98.53;101790.25;5035265;28;20135;-69
2021/09/12 03:35:06;;;;;;;23.85;8.93;;;;;;;14.66;98.42;101790.97;5040124;28;20169;-69
2021/09/12 03:37:34;;;;;;;21.63;8.55;;;;;;;14.65;98.44;101794.59;5033048;28;20142;-69
2021/09/12 03:40:01;;;;;;;25.00;9.27;;;;;;;14.63;98.08;101801.81;5036463;28;20136;-69
2021/09/12 03:42:31;;;;;;;25.67;9.15;;;;;;;14.64;98.68;101798.22;5032477;28;20049;-69
2021/09/12 03:44:58;;;;;;;18.25;8.13;;;;;;;14.65;98.84;101799.97;5037337;28;20409;-65
2021/09/12 03:47:26;;;;;;;22.67;8.88;;;;;;;14.72;98.48;101800.63;5037247;28;20041;-65
2021/09/12 03:49:54;;;;;;;20.15;8.23;;;;;;;14.69;98.49;101796.25;5036669;28;20681;-66
2021/09/12 03:52:22;;;;;;;21.13;8.93;;;;;;;14.69;98.53;101801.63;5035676;28;20524;-65
2021/09/12 03:54:50;;;;;;;20.60;8.95;;;;;;;14.69;98.91;101807.00;5033478;28;20048;-65
2021/09/12 03:57:17;;;;;;;21.33;8.95;;;;;;;14.71;98.99;101814.97;5036988;28;20122;-65
2021/09/12 03:59:47;;;;;;;20.00;9.30;;;;;;;14.74;98.80;101812.19;5036874;28;20081;-65
2021/09/12 04:02:15;;;;;;;21.65;8.88;;;;;;;14.75;98.81;101812.16;5036875;28;20175;-65
2021/09/12 04:04:43;;;;;;;20.23;9.68;;;;;;;14.79;99.14;101814.72;5038646;28;20059;-65
2021/09/12 04:07:11;;;;;;;20.75;8.68;;;;;;;14.81;99.07;101807.50;5039531;28;20061;-65
2021/09/12 04:09:39;;;;;;;25.15;10.48;;;;;;;14.83;99.31;101808.31;5040281;28;20056;-65
2021/09/12 04:12:08;;;;;;;23.50;9.52;;;;;;;14.82;99.43;101818.19;5038785;28;20715;-65
2021/09/12 04:14:35;;;;;;;22.85;8.35;;;;;;;14.83;99.32;101806.53;5040613;28;20056;-66
2021/09/12 04:17:05;;;;;;;23.35;9.20;;;;;;;14.84;99.38;101810.06;5037215;28;20508;-65
2021/09/12 04:19:32;;;;;;;20.00;9.38;;;;;;;14.79;99.50;101794.09;5038115;28;20604;-66
2021/09/12 04:22:00;;;;;;;24.67;9.85;;;;;;;14.78;99.78;101800.44;5040296;28;20057;-65
2021/09/12 04:24:28;;;;;;;25.42;9.68;;;;;;;14.73;99.89;101805.94;5036599;28;20099;-66
2021/09/12 04:26:56;;;;;;;25.17;9.50;;;;;;;14.73;100.00;101805.94;5040662;28;20080;-65
2021/09/12 04:29:23;;;;;;;25.77;10.57;;;;;;;14.65;100.00;101796.41;5036831;28;20452;-65
2021/09/12 04:31:51;;;;;;;27.05;10.02;;;;;;;14.60;100.00;101801.91;5038261;28;20412;-65
2021/09/12 04:34:21;;;;;;;22.17;10.45;;;;;;;14.55;100.00;101793.97;5039626;28;20102;-65
2021/09/12 04:36:48;;;;;;;30.02;10.73;;;;;;;14.53;100.00;101793.16;5039909;28;20132;-65
2021/09/12 04:39:19;;;;;;;26.85;10.77;;;;;;;14.49;100.00;101788.84;5039750;28;20048;-66
2021/09/12 04:41:48;;;;;;;25.52;10.98;;;;;;;14.43;100.00;101789.03;5037501;28;20056;-66
2021/09/12 04:44:15;;;;;;;25.83;9.85;;;;;;;14.42;100.00;101795.34;5038867;28;20258;-66
2021/09/12 04:46:44;;;;;;;24.85;10.93;;;;;;;14.42;100.00;101789.06;5039701;28;20048;-66
2021/09/12 04:49:12;;;;;;;26.67;11.13;;;;;;;14.41;100.00;101790.03;5036843;28;20059;-66
2021/09/12 04:51:42;;;;;;;30.20;11.43;;;;;;;14.42;100.00;101795.34;5042564;28;20111;-68
2021/09/12 04:54:10;;;;;;;26.27;10.63;;;;;;;14.43;100.00;101796.22;5036109;28;20077;-69
2021/09/12 04:56:41;;;;;;;25.02;11.02;;;;;;;14.49;100.00;101804.03;5038815;28;20052;-69
2021/09/12 04:59:09;;;;;;;31.48;12.45;;;;;;;14.50;100.00;101804.00;5038958;28;20632;-69
2021/09/12 05:01:38;;;;;;;30.02;11.52;;;;;;;14.55;100.00;101806.53;5038134;28;20052;-70
2021/09/12 05:04:06;;;;;;;30.02;11.63;;;;;;;14.57;100.00;101807.34;5038857;28;20056;-69
2021/09/12 05:06:37;;;;;;;26.45;11.73;;;;;;;14.56;100.00;101797.56;5037659;28;20049;-70
2021/09/12 05:09:07;;;;;;;28.88;11.20;;;;;;;14.57;nan;101793.94;5037965;28;20247;-69
2021/09/12 05:11:37;;;;;;;33.20;11.43;;;;;;;14.60;100.00;101801.91;5037463;28;20592;-70
2021/09/12 05:14:06;;;;;;;28.50;11.32;;;;;;;14.63;100.00;101811.69;5043046;28;20167;-65
2021/09/12 05:16:34;;;;;;;27.10;10.02;;;;;;;14.62;100.00;101808.13;5038594;28;20573;-66
2021/09/12 05:19:02;;;;;;;27.92;11.18;;;;;;;14.60;100.00;101809.09;5036241;28;20321;-66
2021/09/12 05:21:30;;;;;;;29.63;10.68;;;;;;;14.58;100.00;101809.13;5036597;28;20509;-65
2021/09/12 05:23:58;;;;;;;29.33;12.38;;;;;;;14.56;100.00;101805.63;5037508;28;20080;-66
2021/09/12 05:26:28;;;;;;;22.58;11.40;;;;;;;14.53;100.00;101809.28;5038465;28;20064;-66
2021/09/12 05:28:56;;;;;;;25.83;11.77;;;;;;;14.55;100.00;101804.72;5039327;28;20095;-66
2021/09/12 05:31:24;;;;;;;21.45;10.02;;;;;;;14.51;100.00;101808.44;5037078;28;20045;-65
2021/09/12 05:33:52;;;;;;;23.20;10.70;;;;;;;14.50;100.00;101797.75;5036504;28;20053;-66
2021/09/12 05:36:21;;;;;;;27.73;11.52;;;;;;;14.47;100.00;101805.91;5035977;28;20049;-66
2021/09/12 05:38:50;;;;;;;26.60;11.00;;;;;;;14.44;100.00;101797.94;5036587;28;20410;-66
2021/09/12 05:41:18;;;;;;;27.95;12.05;;;;;;;14.43;100.00;101799.75;5039499;28;20076;-66
2021/09/12 05:43:47;;;;;;;25.63;10.90;;;;;;;14.42;100.00;101803.41;5035568;28;20056;-66
2021/09/12 05:46:17;;;;;;;25.15;9.75;;;;;;;14.44;100.00;101806.00;5037325;28;20058;-66
2021/09/12 05:48:46;;;;;;;21.67;9.32;;;;;;;14.44;100.00;101804.22;5037483;28;20133;-65
2021/09/12 05:51:16;;;;;;;26.67;11.27;;;;;;;14.44;100.00;101814.06;5039694;28;20052;-67
2021/09/12 05:53:44;;;;;;;26.23;11.65;;;;;;;14.43;100.00;101805.13;5039836;28;20049;-67
2021/09/12 05:56:12;;;;;;;26.55;11.90;;;;;;;14.53;100.00;101816.47;5038236;28;20486;-66
2021/09/12 05:58:41;;;;;;;22.63;11.00;;;;;;;14.63;100.00;101815.25;5039059;28;20044;-66
2021/09/12 06:01:11;;;;;;;28.27;11.00;;;;;;;14.72;100.00;101811.38;5038002;28;20053;-67
2021/09/12 06:03:40;;;;;;;31.70;13.80;;;;;;;14.81;100.00;101816.41;5038042;28;20063;-70
2021/09/12 06:06:08;;;;;;;28.25;11.20;;;;;;;14.83;100.00;101819.06;5036672;28;20056;-69
2021/09/12 06:08:36;;;;;;;28.52;12.07;;;;;;;14.92;100.00;101824.13;5039260;28;20571;-70
2021/09/12 06:11:05;;;;;;;29.85;11.70;;;;;;;14.94;100.00;101828.50;5039594;28;20767;-69
2021/09/12 06:13:33;;;;;;;27.08;12.20;;;;;;;14.98;100.00;101828.41;5036140;28;20054;-70
2021/09/12 06:16:01;;;;;;;29.80;12.30;;;;;;;15.00;100.00;101823.84;5039872;28;20497;-70
2021/09/12 06:18:31;;;;;;;25.95;12.02;;;;;;;15.00;100.00;101823.84;5035782;28;20044;-70
2021/09/12 06:20:59;;;;;;;27.73;11.13;;;;;;;15.04;100.00;101821.00;5038471;28;20049;-69
2021/09/12 06:23:33;;;;;;;31.08;12.57;;;;;;;15.04;100.00;101818.31;5038081;28;21196;-69
2021/09/12 06:26:04;;;;;;;27.67;12.52;;;;;;;15.07;100.00;101817.34;5039865;28;20499;-69
2021/09/12 06:28:32;;;;;;;26.92;12.63;;;;;;;15.12;100.00;101815.38;5032117;28;20044;-71
2021/09/12 06:31:00;;;;;;;25.05;11.10;;;;;;;15.16;100.00;101821.53;5036136;28;20242;-70
2021/09/12 06:33:29;;;;;;;30.98;12.25;;;;;;;15.13;100.00;101814.41;5038345;28;20068;-70
2021/09/12 06:35:58;;;;;;;29.30;12.65;;;;;;;15.22;100.00;101821.28;5037126;28;20490;-69
2021/09/12 06:38:26;;;;;;;30.92;14.07;;;;;;;15.30;99.92;101820.06;5037359;28;20099;-69
2021/09/12 06:40:55;;;;;;;32.13;13.27;;;;;;;15.35;100.00;101829.78;5039383;28;20044;-70
2021/09/12 06:43:24;;;;;;;34.20;14.20;;;;;;;15.41;99.96;101827.75;5036672;28;20084;-70
2021/09/12 06:45:56;;;;;;;29.52;12.88;;;;;;;15.46;99.85;101822.19;5037202;28;20087;-70
2021/09/12 06:48:27;;;;;;;25.45;11.80;;;;;;;15.50;99.89;101837.28;5037930;28;20059;-70
2021/09/12 06:50:58;;;;;;;32.60;14.02;;;;;;;15.55;99.48;101834.44;5034155;28;20512;-69
2021/09/12 06:53:28;;;;;;;26.63;12.90;;;;;;;15.58;99.57;101839.69;5038823;28;20114;-69
2021/09/12 06:55:55;;;;;;;33.22;13.70;;;;;;;15.69;99.23;101838.34;5034207;28;20046;-70
2021/09/12 06:58:24;;;;;;;31.65;13.68;;;;;;;15.72;98.57;101842.75;5036443;28;20136;-69
2021/09/12 07:00:52;;;;;;;28.17;13.75;;;;;;;15.85;98.82;101841.38;5036513;28;20067;-69
2021/09/12 07:03:20;;;;;;;32.60;13.63;;;;;;;15.93;98.40;101845.59;5035696;28;20053;-69
2021/09/12 07:05:53;;;;;;;36.00;15.02;;;;;;;15.96;97.99;101832.88;5037730;28;20144;-69
2021/09/12 07:08:21;;;;;;;31.10;13.52;;;;;;;16.01;97.88;101838.97;5035799;28;20045;-69
2021/09/12 07:10:51;;;;;;;32.50;13.57;;;;;;;16.09;97.91;101833.31;5038352;28;20065;-70
2021/09/12 07:13:20;;;;;;;34.78;13.73;;;;;;;16.18;97.70;101845.53;5037072;28;20509;-69
2021/09/12 07:15:48;;;;;;;30.85;15.20;;;;;;;16.19;97.53;101849.94;5035251;28;20056;-71
2021/09/12 07:18:18;;;;;;;35.40;14.43;;;;;;;16.19;97.40;101833.78;5034747;28;20551;-69
2021/09/12 07:20:46;;;;;;;37.13;14.52;;;;;;;16.31;96.67;101840.50;5034931;28;20058;-70
2021/09/12 07:23:14;;;;;;;38.25;16.27;;;;;;;16.31;96.22;101830.63;5038805;28;20369;-70
2021/09/12 07:25:42;;;;;;;35.83;15.52;;;;;;;16.50;96.22;101835.25;5032189;28;20438;-69
2021/09/12 07:28:12;;;;;;;38.42;15.77;;;;;;;16.55;95.84;101839.53;5036551;28;20535;-69
2021/09/12 07:30:39;;;;;;;38.95;16.63;;;;;;;16.62;95.66;101835.63;5037559;28;20075;-69
2021/09/12 07:33:07;;;;;;;39.75;16.50;;;;;;;16.69;95.59;101851.56;5034796;28;20110;-69
2021/09/12 07:35:35;;;;;;;39.47;16.88;;;;;;;16.72;95.42;101846.00;5037512;28;20493;-69
2021/09/12 07:38:05;;;;;;;40.83;18.20;;;;;;;16.93;94.60;101842.44;5032993;28;20474;-69
2021/09/12 07:40:33;;;;;;;43.17;19.38;;;;;;;16.86;94.59;101850.88;5038425;28;20072;-69
2021/09/12 07:43:01;;;;;;;43.22;19.02;;;;;;;16.95;94.74;101853.16;5042242;28;20659;-69
2021/09/12 07:45:31;;;;;;;49.95;19.55;;;;;;;16.94;95.50;101851.41;5039286;28;20053;-69
2021/09/12 07:47:58;;;;;;;47.90;21.58;;;;;;;16.98;95.72;101858.44;5043109;28;21079;-69
2021/09/12 07:50:26;;;;;;;52.10;22.80;;;;;;;17.02;95.72;101851.94;5037017;28;20049;-69
2021/09/12 07:52:54;;;;;;;46.70;21.95;;;;;;;17.18;95.41;101860.28;5038056;28;20250;-65
2021/09/12 07:55:22;;;;;;;52.05;21.27;;;;;;;17.40;94.91;101867.41;5038581;28;20052;-65
2021/09/12 07:57:50;;;;;;;49.05;23.17;;;;;;;17.38;94.40;101866.59;5039888;28;20264;-65
2021/09/12 08:00:19;;;;;;;51.10;23.67;;;;;;;17.38;94.15;101872.84;5042387;28;20045;-67
2021/09/12 08:02:48;;;;;;;43.65;21.42;;;;;;;17.36;94.57;101870.22;5038694;28;20139;-66
2021/09/12 08:05:17;;;;;;;41.28;20.23;;;;;;;17.49;93.50;101875.09;5041812;28;20136;-65
2021/09/12 08:07:45;;;;;;;54.15;23.63;;;;;;;17.59;93.37;101870.13;5038691;28;20045;-65
2021/09/12 08:10:13;;;;;;;51.58;20.77;;;;;;;17.72;93.29;101880.34;5040005;28;20321;-66
2021/09/12 08:12:41;;;;;;;47.95;23.30;;;;;;;17.73;92.57;101882.06;5038267;28;20456;-65
2021/09/12 08:15:10;;;;;;;53.95;24.73;;;;;;;17.84;92.29;101873.50;5039186;28;20048;-65
2021/09/12 08:17:37;;;;;;;46.83;22.40;;;;;;;17.99;91.95;101873.75;5042099;28;20471;-65
2021/09/12 08:20:08;;;;;;;45.35;21.50;;;;;;;18.42;90.58;101866.28;5040040;28;20428;-65
2021/09/12 08:22:36;;;;;;;50.78;21.20;;;;;;;18.57;89.13;101870.94;5038363;28;20129;-65
2021/09/12 08:25:06;;;;;;;48.78;23.60;;;;;;;18.45;88.81;101868.84;5039518;28;20549;-65
2021/09/12 08:27:35;;;;;;;45.50;22.10;;;;;;;18.47;88.48;101872.34;5039936;28;20048;-65
2021/09/12 08:30:03;;;;;;;52.28;22.98;;;;;;;18.91;87.62;101887.34;5038543;28;20122;-65
2021/09/12 08:32:30;;;;;;;43.60;22.02;;;;;;;18.82;87.16;101885.94;5037968;28;20587;-66
2021/09/12 08:34:58;;;;;;;41.28;21.15;;;;;;;18.94;87.67;101889.91;5037669;28;20053;-65
2021/09/12 08:37:28;;;;;;;47.67;23.90;;;;;;;19.21;86.40;101893.00;5039391;28;20056;-66
2021/09/12 08:39:56;;;;;;;44.80;22.55;;;;;;;19.25;85.08;101891.00;5039972;28;20106;-66
2021/09/12 08:42:26;;;;;;;50.80;22.60;;;;;;;19.28;85.73;101891.72;5036302;28;20189;-66
2021/09/12 08:44:54;;;;;;;40.78;19.67;;;;;;;19.39;86.02;101892.06;5040660;28;20505;-65
2021/09/12 08:47:26;;;;;;;39.50;21.10;;;;;;;19.45;85.00;101892.69;5040809;28;20049;-65
2021/09/12 08:49:54;;;;;;;43.47;21.75;;;;;;;19.35;85.44;101898.56;5034978;28;20053;-65
2021/09/12 08:52:22;;;;;;;42.03;20.83;;;;;;;19.42;84.36;101899.13;5040070;28;20497;-66
2021/09/12 08:54:51;;;;;;;40.63;20.70;;;;;;;19.60;83.97;101889.16;5036857;28;20093;-65
2021/09/12 08:57:22;;;;;;;48.97;20.75;;;;;;;19.83;83.71;101893.34;5038221;28;20519;-66
2021/09/12 08:59:51;;;;;;;34.72;19.00;;;;;;;19.88;83.35;101893.09;5037558;28;20076;-69
2021/09/12 09:02:27;;;;;;;37.30;19.05;;;;;;;19.95;83.79;101902.63;5040486;28;20045;-69
2021/09/12 09:05:02;;;;;;;34.90;19.08;;;;;;;19.75;82.88;101901.00;5038890;28;20060;-69
2021/09/12 09:07:31;;;;;;;36.45;20.00;;;;;;;19.72;82.81;101918.28;5039012;28;20048;-69
2021/09/12 09:10:01;;;;;;;37.65;21.35;;;;;;;19.48;83.54;101914.16;5039004;28;20073;-68
2021/09/12 09:12:35;;;;;;;30.70;18.30;;;;;;;19.80;82.97;101912.47;5039195;28;20545;-70
2021/09/12 09:15:12;;;;;;;32.58;19.85;;;;;;;19.90;82.42;101905.63;5037806;28;20099;-69
2021/09/12 09:17:42;;;;;;;36.72;19.58;;;;;;;20.15;82.09;101906.97;5039581;28;20319;-69
2021/09/12 09:20:16;;;;;;;35.15;19.33;;;;;;;20.04;82.21;101907.56;5036732;28;20063;-69
2021/09/12 09:22:46;;;;;;;37.30;19.45;;;;;;;20.35;80.50;101903.16;5036731;28;20114;-69
2021/09/12 09:25:20;;;;;;;31.08;18.70;;;;;;;20.52;79.10;101908.47;5040579;28;20060;-69
2021/09/12 09:27:58;;;;;;;36.10;20.10;;;;;;;19.85;78.82;101912.22;5035508;28;20048;-69
2021/09/12 09:30:27;;;;;;;39.00;20.55;;;;;;;19.94;80.09;101909.03;5039507;28;20081;-68
2021/09/12 09:33:16;;;;;;;37.42;19.35;;;;;;;19.89;80.10;101905.69;5040280;28;20547;-68
2021/09/12 09:35:59;;;;;;;35.28;21.20;;;;;;;20.86;77.17;101890.28;5036233;28;20053;-69
2021/09/12 09:38:30;;;;;;;38.35;19.98;;;;;;;21.02;75.71;101895.66;5038930;28;20053;-69
2021/09/12 09:41:01;;;;;;;33.80;20.42;;;;;;;20.61;78.12;101903.50;5038303;28;20049;-69
2021/09/12 09:43:48;;;;;;;34.75;20.35;;;;;;;20.89;77.77;101890.09;5038932;28;20123;-69
2021/09/12 09:46:28;;;;;;;34.08;19.90;;;;;;;20.55;78.52;101901.13;5036292;28;20052;-69
2021/09/12 09:48:57;;;;;;;34.08;19.10;;;;;;;21.35;76.50;101891.91;5037250;28;20049;-69
2021/09/12 09:51:26;;;;;;;33.10;19.33;;;;;;;21.92;73.99;101895.66;5038535;28;20052;-69
2021/09/12 09:53:56;;;;;;;39.08;20.75;;;;;;;22.31;71.87;101892.25;5040503;28;20098;-69
2021/09/12 09:56:25;;;;;;;33.45;19.48;;;;;;;22.65;71.07;101905.50;5037506;28;20103;-69
2021/09/12 09:58:54;;;;;;;29.27;16.85;;;;;;;22.70;70.57;101893.31;5035716;28;20519;-69
2021/09/12 10:01:21;;;;;;;31.85;20.83;;;;;;;21.97;72.09;101897.13;5037453;28;20586;-70
2021/09/12 10:03:50;;;;;;;31.45;18.80;;;;;;;21.76;73.04;101901.16;5036994;28;20504;-69
2021/09/12 10:06:18;;;;;;;32.83;17.15;;;;;;;21.85;73.45;101894.31;5040398;28;20048;-69
2021/09/12 10:08:46;;;;;;;29.45;18.20;;;;;;;22.03;73.40;101901.28;5037616;28;20053;-69
2021/09/12 10:11:16;;;;;;;25.98;17.08;;;;;;;21.72;73.17;101889.63;5034510;28;20055;-68
2021/09/12 10:13:49;;;;;;;31.17;18.40;;;;;;;21.50;74.30;101892.81;5036024;28;20452;-66
2021/09/12 10:16:18;;;;;;;29.67;19.30;;;;;;;21.24;75.42;101899.81;5037972;28;20049;-66
2021/09/12 10:18:46;;;;;;;28.08;17.00;;;;;;;21.11;75.51;101901.50;5035842;28;20435;-65
2021/09/12 10:21:25;;;;;;;26.00;17.13;;;;;;;21.16;76.00;101902.97;5037153;28;20080;-66
2021/09/12 10:24:05;;;;;;;26.85;17.35;;;;;;;21.16;76.19;101897.53;5037104;28;20055;-65
2021/09/12 10:26:37;;;;;;;27.33;16.52;;;;;;;21.26;76.05;101900.59;5036612;28;20214;-66
2021/09/12 10:29:50;;;;;;;24.00;15.43;;;;;;;21.33;75.80;101906.50;5038567;28;20061;-66
2021/09/12 10:32:35;;;;;;;12.15;7.25;;;;;;;21.23;72.43;101909.81;5036326;28;20053;-65
2021/09/12 10:35:17;;;;;;;9.38;5.07;;;;;;;20.98;71.97;101904.09;5034253;28;20052;-68
2021/09/12 10:38:11;;;;;;;8.40;4.10;;;;;;;21.54;71.53;101901.63;5034913;28;20055;-65
2021/09/12 10:41:09;;;;;;;8.55;4.18;;;;;;;21.97;68.93;101896.25;5028162;28;20122;-65
2021/09/12 10:43:42;;;;;;;6.43;3.42;;;;;;;21.11;68.40;101905.09;5035281;28;20060;-66
2021/09/12 10:46:26;;;;;;;6.13;3.42;;;;;;;21.60;68.45;101898.56;5033192;28;20064;-66
2021/09/12 10:49:14;;;;;;;5.75;3.50;;;;;;;21.19;67.27;101899.22;5037235;28;20214;-66
2021/09/12 10:51:44;;;;;;;7.63;3.47;;;;;;;21.05;68.42;101903.63;5039828;28;20058;-69
2021/09/12 10:54:13;;;;;;;8.25;3.88;;;;;;;21.58;67.07;101906.78;5036208;28;20528;-69
2021/09/12 10:56:41;;;;;;;5.78;3.15;;;;;;;21.18;66.75;101897.44;5035523;28;20053;-69
2021/09/12 10:59:15;;;;;;;5.88;2.85;;;;;;;20.89;66.67;101900.97;5037822;28;20061;-70
2021/09/12 11:01:49;;;;;;;4.72;2.88;;;;;;;20.98;66.12;101893.25;5038952;28;20091;-69
2021/09/12 11:04:19;;;;;;;6.35;3.15;;;;;;;21.14;66.73;101895.91;5036484;28;20061;-69
2021/09/12 11:06:48;;;;;;;6.78;3.20;;;;;;;21.20;66.03;101909.13;5038444;28;20622;-70
2021/09/12 11:09:18;;;;;;;6.40;3.35;;;;;;;21.23;65.21;101901.66;5035997;28;20061;-70
2021/09/12 11:11:47;;;;;;;6.70;2.83;;;;;;;21.54;63.44;101899.81;5037970;28;20122;-70
2021/09/12 11:14:17;;;;;;;4.82;2.33;;;;;;;22.00;64.10;101906.94;5036263;28;20060;-70
2021/09/12 11:16:46;;;;;;;4.30;2.58;;;;;;;22.13;61.26;101898.84;5038706;28;20071;-70
2021/09/12 11:19:15;;;;;;;4.07;2.30;;;;;;;22.20;62.05;101902.91;5035858;28;20484;-70
2021/09/12 11:21:45;;;;;;;6.22;2.85;;;;;;;22.42;60.39;101909.72;5036790;28;20106;-70
2021/09/12 11:24:15;;;;;;;6.28;2.78;;;;;;;21.86;60.24;101907.78;5035692;28;20048;-66